Time;durP1;ratioP1;P1;durP2;ratioP2;P2;SDS_P1;SDS_P2;PMS_P1;PMS_P2;Temp;Humidity;BMP_temperature;BMP_pressure;BME280_temperature;BME280_humidity;BME280_pressure;Samples;Min_cycle;Max_cycle;Signal;HPM_P1;HPM_P2
2024/03/24 00:01:27;;;;;;;;;;;;;;;2.08;100.00;99968.22;6154411;23;19917;-75
2024/03/24 00:03:52;;;;;;;;;;;;;;;2.09;100.00;99967.25;6153970;23;19965;-76
2024/03/24 00:06:17;;;;;;;;;;;;;;;2.09;100.00;99970.72;6155488;23;19912;-75
2024/03/24 00:08:43;;;;;;;;;;;;;;;2.04;100.00;99970.34;6154803;23;19920;-76
2024/03/24 00:11:08;;;;;;;;;;;;;;;2.05;100.00;99977.34;6153659;23;19931;-76
2024/03/24 00:13:35;;;;;;;;;;;;;;;2.12;100.00;99962.41;6155595;23;19913;-75
2024/03/24 00:16:01;;;;;;;;;;;;;;;2.25;100.00;99961.94;6154905;23;19968;-76
2024/03/24 00:18:28;;;;;;;;;;;;;;;2.25;100.00;99945.16;6153770;23;19908;-76
2024/03/24 00:20:53;;;;;;;;;;;;;;;2.30;100.00;99957.94;6155154;23;19913;-76
2024/03/24 00:23:19;;;;;;;;;;;;;;;2.33;100.00;99957.63;6154928;23;19913;-76
2024/03/24 00:25:44;;;;;;;;;;;;;;;2.35;100.00;99951.16;6152722;23;20342;-75
2024/03/24 00:28:09;;;;;;;;;;;;;;;2.41;100.00;99949.66;6154862;23;19924;-75
2024/03/24 00:30:34;;;;;;;;;;;;;;;2.38;100.00;99944.69;6154854;23;19908;-74
2024/03/24 00:33:01;;;;;;;;;;;;;;;2.46;100.00;99936.72;6152951;23;19934;-75
2024/03/24 00:35:26;;;;;;;;;;;;;;;2.46;100.00;99930.56;6154667;23;19919;-75
2024/03/24 00:37:51;;;;;;;;;;;;;;;2.51;100.00;99926.41;6153738;23;19979;-76
2024/03/24 00:40:17;;;;;;;;;;;;;;;2.51;100.00;99928.25;6154924;23;20309;-75
2024/03/24 00:42:42;;;;;;;;;;;;;;;2.54;100.00;99928.72;6154703;23;20321;-75
2024/03/24 00:45:08;;;;;;;;;;;;;;;2.61;100.00;99925.41;6152959;23;20664;-75
2024/03/24 00:47:33;;;;;;;;;;;;;;;2.65;100.00;99919.59;6153883;23;20440;-75
2024/03/24 00:50:02;;;;;;;;;;;;;;;2.71;100.00;99915.44;6154427;23;20044;-75
2024/03/24 00:52:28;;;;;;;;;;;;;;;2.65;100.00;99913.47;6153845;23;20019;-76
2024/03/24 00:54:53;;;;;;;;;;;;;;;2.61;100.00;99917.44;6153820;23;19952;-75
2024/03/24 00:57:18;;;;;;;;;;;;;;;2.73;100.00;99905.47;6154582;23;19935;-76
2024/03/24 00:59:43;;;;;;;;;;;;;;;2.70;100.00;99905.78;6154277;23;19913;-76
2024/03/24 01:02:08;;;;;;;;;;;;;;;2.76;100.00;99907.78;6154168;23;19916;-76
2024/03/24 01:04:34;;;;;;;;;;;;;;;2.85;100.00;99900.63;6154165;23;20330;-77
2024/03/24 01:06:59;;;;;;;;;;;;;;;2.85;100.00;99898.78;6154242;23;20399;-76
2024/03/24 01:09:24;;;;;;;;;;;;;;;2.89;100.00;99888.66;6152480;23;20330;-76
2024/03/24 01:11:49;;;;;;;;;;;;;;;2.79;100.00;99891.50;6153858;23;20332;-76
2024/03/24 01:14:14;;;;;;;;;;;;;;;2.87;100.00;99878.19;6154597;23;20245;-76
2024/03/24 01:16:40;;;;;;;;;;;;;;;2.93;100.00;99886.47;6153994;23;20318;-76
2024/03/24 01:19:08;;;;;;;;;;;;;;;2.84;100.00;99883.81;6154689;23;20249;-75
2024/03/24 01:21:33;;;;;;;;;;;;;;;2.91;100.00;99865.41;6154359;23;19995;-76
2024/03/24 01:24:01;;;;;;;;;;;;;;;2.90;100.00;99874.38;6153698;23;19952;-75
2024/03/24 01:26:26;;;;;;;;;;;;;;;2.97;100.00;99866.53;6153511;23;20241;-76
2024/03/24 01:28:51;;;;;;;;;;;;;;;3.00;100.00;99858.22;6154216;23;19919;-75
2024/03/24 01:31:17;;;;;;;;;;;;;;;2.98;100.00;99857.56;6154077;23;19983;-75
2024/03/24 01:33:42;;;;;;;;;;;;;;;3.02;100.00;99845.56;6153681;23;19924;-75
2024/03/24 01:36:07;;;;;;;;;;;;;;;3.00;100.00;99853.72;6154112;23;19913;-75
2024/03/24 01:38:33;;;;;;;;;;;;;;;3.00;100.00;99847.59;6153785;23;19912;-76
2024/03/24 01:40:58;;;;;;;;;;;;;;;2.92;100.00;99835.13;6153641;23;19920;-75
2024/03/24 01:43:24;;;;;;;;;;;;;;;2.85;100.00;99834.97;6154717;23;19966;-74
2024/03/24 01:45:49;;;;;;;;;;;;;;;2.83;100.00;99847.63;6154027;23;19917;-74
2024/03/24 01:48:14;;;;;;;;;;;;;;;2.80;100.00;99818.75;6153053;23;20321;-74
2024/03/24 01:50:40;;;;;;;;;;;;;;;2.77;100.00;99820.91;6154615;23;20401;-74
2024/03/24 01:53:06;;;;;;;;;;;;;;;2.82;100.00;99814.09;6153732;23;19959;-74
2024/03/24 01:55:31;;;;;;;;;;;;;;;2.76;100.00;99809.44;6152399;23;19968;-74
2024/03/24 01:57:57;;;;;;;;;;;;;;;2.83;100.00;99806.94;6154830;23;19954;-74
2024/03/24 02:00:22;;;;;;;;;;;;;;;2.80;100.00;99794.81;6153673;23;19931;-74
2024/03/24 02:02:47;;;;;;;;;;;;;;;2.75;100.00;99797.16;6126045;23;19918;-74
2024/03/24 02:05:12;;;;;;;;;;;;;;;2.86;100.00;99799.44;6154503;23;19941;-73
2024/03/24 02:07:38;;;;;;;;;;;;;;;2.76;100.00;99798.81;6154065;23;20284;-73
2024/03/24 02:10:03;;;;;;;;;;;;;;;2.71;100.00;99791.38;6152891;23;20610;-73
2024/03/24 02:12:29;;;;;;;;;;;;;;;2.80;100.00;99792.16;6154591;23;20242;-73
2024/03/24 02:14:54;;;;;;;;;;;;;;;2.82;100.00;99774.22;6154412;23;20322;-73
2024/03/24 02:17:19;;;;;;;;;;;;;;;2.86;100.00;99775.50;6152831;23;19913;-73
2024/03/24 02:19:47;;;;;;;;;;;;;;;2.70;100.00;99778.22;6154003;23;20280;-73
2024/03/24 02:22:13;;;;;;;;;;;;;;;2.73;100.00;99765.44;6154102;23;19955;-73
2024/03/24 02:24:38;;;;;;;;;;;;;;;2.73;100.00;99769.91;6153665;23;19912;-72
2024/03/24 02:27:03;;;;;;;;;;;;;;;2.79;100.00;99771.91;6154659;23;19916;-73
2024/03/24 02:29:28;;;;;;;;;;;;;;;2.84;100.00;99768.72;6155299;23;19932;-73
2024/03/24 02:31:53;;;;;;;;;;;;;;;2.87;100.00;99769.19;6154224;23;19912;-73
2024/03/24 02:34:21;;;;;;;;;;;;;;;2.85;100.00;99760.56;6155983;23;19948;-73
2024/03/24 02:36:46;;;;;;;;;;;;;;;2.81;100.00;99759.28;6155934;23;19916;-73
2024/03/24 02:39:11;;;;;;;;;;;;;;;2.78;100.00;99743.66;6154190;23;19939;-73
2024/03/24 02:41:36;;;;;;;;;;;;;;;2.83;100.00;99749.28;6155925;23;19917;-72
2024/03/24 02:44:02;;;;;;;;;;;;;;;2.83;100.00;99741.28;6155550;23;19987;-74
2024/03/24 02:46:27;;;;;;;;;;;;;;;2.82;100.00;99739.66;6154586;23;19923;-73
2024/03/24 02:48:52;;;;;;;;;;;;;;;2.91;100.00;99734.28;6155700;23;20362;-72
2024/03/24 02:51:17;;;;;;;;;;;;;;;2.95;100.00;99732.94;6156253;23;20241;-73
2024/03/24 02:53:43;;;;;;;;;;;;;;;3.01;100.00;99734.88;6155590;23;20348;-74
2024/03/24 02:56:11;;;;;;;;;;;;;;;3.03;100.00;99724.91;6155234;23;19912;-74
2024/03/24 02:58:36;;;;;;;;;;;;;;;3.02;100.00;99724.09;6154458;23;20281;-74
2024/03/24 03:01:01;;;;;;;;;;;;;;;3.03;100.00;99715.13;6155241;23;19923;-74
2024/03/24 03:03:26;;;;;;;;;;;;;;;3.14;100.00;99715.69;6155315;23;20301;-74
2024/03/24 03:05:52;;;;;;;;;;;;;;;3.09;100.00;99715.44;6155428;23;20324;-74
2024/03/24 03:08:17;;;;;;;;;;;;;;;3.08;100.00;99717.25;6154622;23;19920;-74
2024/03/24 03:10:42;;;;;;;;;;;;;;;3.07;100.00;99707.59;6154663;23;19909;-74
2024/03/24 03:13:08;;;;;;;;;;;;;;;3.09;100.00;99708.25;6155234;23;19920;-74
2024/03/24 03:15:33;;;;;;;;;;;;;;;3.09;100.00;99713.56;6154906;23;19919;-74
2024/03/24 03:17:58;;;;;;;;;;;;;;;3.05;100.00;99717.59;6155053;23;20248;-74
2024/03/24 03:20:24;;;;;;;;;;;;;;;3.14;100.00;99700.59;6155455;23;20297;-73
2024/03/24 03:22:49;;;;;;;;;;;;;;;3.21;100.00;99694.53;6154857;23;20360;-73
2024/03/24 03:25:17;;;;;;;;;;;;;;;3.07;100.00;99706.78;6154624;23;19912;-74
2024/03/24 03:27:44;;;;;;;;;;;;;;;3.10;100.00;99704.59;6153795;23;19913;-75
2024/03/24 03:30:09;;;;;;;;;;;;;;;3.04;100.00;99684.03;6154516;23;20352;-75
2024/03/24 03:32:35;;;;;;;;;;;;;;;3.09;100.00;99684.31;6154437;23;19912;-75
2024/03/24 03:35:00;;;;;;;;;;;;;;;3.21;100.00;99694.53;6154312;23;20004;-75
2024/03/24 03:37:26;;;;;;;;;;;;;;;3.16;100.00;99687.94;6154935;23;19917;-74
2024/03/24 03:39:51;;;;;;;;;;;;;;;3.19;100.00;99684.09;6161846;23;20325;-74
2024/03/24 03:42:16;;;;;;;;;;;;;;;3.17;100.00;99686.09;6177035;23;19927;-72
2024/03/24 03:44:42;;;;;;;;;;;;;;;3.09;100.00;99692.31;6177639;23;19913;-74
2024/03/24 03:47:08;;;;;;;;;;;;;;;3.16;100.00;99690.59;6179729;23;19920;-77
2024/03/24 03:49:35;;;;;;;;;;;;;;;3.10;100.00;99685.16;6181155;23;19948;-75
2024/03/24 03:52:08;;;;;;;;;;;;;;;3.21;100.00;99686.56;6179834;23;19964;-76
2024/03/24 03:54:36;;;;;;;;;;;;;;;3.19;100.00;99684.91;6165489;23;19996;-74
2024/03/24 03:57:02;;;;;;;;;;;;;;;3.13;100.00;99684.78;6157162;23;20313;-74
2024/03/24 03:59:27;;;;;;;;;;;;;;;3.11;100.00;99671.69;6156208;23;19916;-73
2024/03/24 04:01:58;;;;;;;;;;;;;;;3.08;100.00;99677.34;6154360;23;19912;-73
2024/03/24 04:04:23;;;;;;;;;;;;;;;3.10;100.00;99670.03;6154655;23;19912;-73
2024/03/24 04:06:49;;;;;;;;;;;;;;;2.98;100.00;99674.13;6153124;23;19944;-74
2024/03/24 04:09:18;;;;;;;;;;;;;;;3.02;100.00;99675.38;6152050;23;20392;-74
2024/03/24 04:11:44;;;;;;;;;;;;;;;3.12;100.00;99677.81;6152542;23;19909;-73
2024/03/24 04:14:09;;;;;;;;;;;;;;;3.05;100.00;99677.69;6152174;23;19963;-73
2024/03/24 04:16:34;;;;;;;;;;;;;;;3.03;100.00;99693.84;6152340;23;19990;-74
2024/03/24 04:19:00;;;;;;;;;;;;;;;3.03;100.00;99663.75;6152396;23;19919;-74
2024/03/24 04:21:25;;;;;;;;;;;;;;;3.10;100.00;99678.00;6152066;23;19948;-74
2024/03/24 04:23:51;;;;;;;;;;;;;;;2.98;100.00;99684.75;6151046;23;19927;-73
2024/03/24 04:26:16;;;;;;;;;;;;;;;2.92;100.00;99688.09;6152198;23;20428;-74
2024/03/24 04:28:41;;;;;;;;;;;;;;;2.91;100.00;99694.41;6153006;23;19979;-74
2024/03/24 04:31:06;;;;;;;;;;;;;;;2.87;100.00;99700.06;6150681;23;20384;-74
2024/03/24 04:33:31;;;;;;;;;;;;;;;2.87;100.00;99691.28;6152323;23;20436;-73
2024/03/24 04:35:57;;;;;;;;;;;;;;;2.82;100.00;99690.97;6151644;23;20036;-73
2024/03/24 04:38:23;;;;;;;;;;;;;;;2.82;100.00;99697.13;6150194;23;19952;-73
2024/03/24 04:40:48;;;;;;;;;;;;;;;2.80;100.00;99692.97;6151659;23;19913;-73
2024/03/24 04:43:15;;;;;;;;;;;;;;;2.78;100.00;99698.47;6152342;23;19923;-73
2024/03/24 04:45:43;;;;;;;;;;;;;;;2.77;100.00;99694.16;6149440;23;20523;-73
2024/03/24 04:48:11;;;;;;;;;;;;;;;2.71;100.00;99679.75;6151611;23;19995;-74
2024/03/24 04:50:37;;;;;;;;;;;;;;;2.75;100.00;99682.88;6151563;23;19920;-74
2024/03/24 04:53:03;;;;;;;;;;;;;;;2.73;100.00;99682.22;6150014;23;19913;-74
2024/03/24 04:55:28;;;;;;;;;;;;;;;2.66;100.00;99687.41;6151520;23;20414;-73
2024/03/24 04:57:53;;;;;;;;;;;;;;;2.64;100.00;99693.91;6152778;23;19917;-74
2024/03/24 05:00:18;;;;;;;;;;;;;;;2.61;100.00;99688.94;6150584;23;19990;-73
2024/03/24 05:02:47;;;;;;;;;;;;;;;2.58;100.00;99684.78;6151768;23;19983;-74
2024/03/24 05:05:12;;;;;;;;;;;;;;;2.60;100.00;99684.63;6151011;23;19963;-74
2024/03/24 05:07:37;;;;;;;;;;;;;;;2.54;100.00;99686.16;6151227;23;19983;-73
2024/03/24 05:10:03;;;;;;;;;;;;;;;2.50;100.00;99685.66;6151015;23;19912;-74
2024/03/24 05:12:28;;;;;;;;;;;;;;;2.50;100.00;99687.50;6152124;23;19912;-74
2024/03/24 05:14:53;;;;;;;;;;;;;;;2.47;100.00;99683.34;6152169;23;19913;-74
2024/03/24 05:17:19;;;;;;;;;;;;;;;2.39;100.00;99684.19;6150717;23;19921;-74
2024/03/24 05:19:44;;;;;;;;;;;;;;;2.35;100.00;99679.41;6151694;23;19912;-74
2024/03/24 05:22:09;;;;;;;;;;;;;;;2.32;100.00;99685.06;6150535;23;20388;-73
2024/03/24 05:24:35;;;;;;;;;;;;;;;2.26;100.00;99684.78;6150517;23;19967;-73
2024/03/24 05:27:01;;;;;;;;;;;;;;;2.24;100.00;99689.44;6151846;23;20263;-74
2024/03/24 05:29:29;;;;;;;;;;;;;;;2.26;100.00;99692.75;6153306;23;20341;-75
2024/03/24 05:31:57;;;;;;;;;;;;;;;2.22;100.00;99699.38;6152499;23;19920;-72
2024/03/24 05:34:23;;;;;;;;;;;;;;;2.18;100.00;99700.72;6151208;23;19967;-73
2024/03/24 05:36:50;;;;;;;;;;;;;;;2.11;100.00;99707.72;6153829;23;19913;-74
2024/03/24 05:39:16;;;;;;;;;;;;;;;2.13;100.00;99703.03;6164193;23;19917;-73
2024/03/24 05:41:41;;;;;;;;;;;;;;;2.13;100.00;99697.75;6154131;23;19913;-73
2024/03/24 05:44:07;;;;;;;;;;;;;;;2.17;100.00;99704.38;6153025;23;19913;-73
2024/03/24 05:46:32;;;;;;;;;;;;;;;2.16;100.00;99708.03;6152958;23;19913;-74
2024/03/24 05:48:57;;;;;;;;;;;;;;;2.20;100.00;99704.03;6150710;23;19927;-74
2024/03/24 05:51:22;;;;;;;;;;;;;;;2.34;100.00;99710.47;6153588;23;19917;-74
2024/03/24 05:53:48;;;;;;;;;;;;;;;2.39;100.00;99720.56;6152852;23;19923;-74
2024/03/24 05:56:14;;;;;;;;;;;;;;;2.38;100.00;99722.38;6152820;23;19912;-74
2024/03/24 05:58:39;;;;;;;;;;;;;;;2.34;100.00;99725.56;6128168;23;19916;-74
2024/03/24 06:01:10;;;;;;;;;;;;;;;2.35;100.00;99727.22;6154551;23;20119;-74
2024/03/24 06:03:36;;;;;;;;;;;;;;;2.41;100.00;99726.53;6154833;23;19913;-74
2024/03/24 06:06:01;;;;;;;;;;;;;;;2.36;100.00;99726.22;6154602;23;19944;-74
2024/03/24 06:08:27;;;;;;;;;;;;;;;2.37;100.00;99730.53;6154047;23;19917;-74
2024/03/24 06:10:55;;;;;;;;;;;;;;;2.38;100.00;99729.53;6155913;23;19913;-74
2024/03/24 06:13:20;;;;;;;;;;;;;;;2.25;100.00;99736.22;6155004;23;19995;-74
2024/03/24 06:15:46;;;;;;;;;;;;;;;2.18;100.00;99727.28;6154146;23;19947;-73
2024/03/24 06:18:11;;;;;;;;;;;;;;;2.15;100.00;99738.22;6156444;23;20038;-73
2024/03/24 06:20:39;;;;;;;;;;;;;;;2.24;100.00;99731.91;6154779;23;19948;-74
2024/03/24 06:23:08;;;;;;;;;;;;;;;2.19;100.00;99742.19;6154309;23;19939;-75
2024/03/24 06:25:33;;;;;;;;;;;;;;;2.25;100.00;99736.22;6155550;23;19913;-74
2024/03/24 06:27:59;;;;;;;;;;;;;;;2.22;100.00;99738.38;6155221;23;19920;-74
2024/03/24 06:30:24;;;;;;;;;;;;;;;2.21;100.00;99737.56;6153898;23;19916;-74
2024/03/24 06:32:49;;;;;;;;;;;;;;;2.20;100.00;99745.69;6155485;23;19948;-74
2024/03/24 06:35:15;;;;;;;;;;;;;;;2.20;100.00;99745.69;6153629;23;20265;-74
2024/03/24 06:37:40;;;;;;;;;;;;;;;2.32;100.00;99738.19;6153802;23;19920;-74
2024/03/24 06:40:07;;;;;;;;;;;;;;;2.46;100.00;99737.50;6155206;23;20239;-74
2024/03/24 06:42:33;;;;;;;;;;;;;;;2.79;100.00;99747.97;6155289;23;19913;-74
2024/03/24 06:45:08;;;;;;;;;;;;;;;3.36;100.00;99748.63;6153667;23;20282;-74
2024/03/24 06:47:33;;;;;;;;;;;;;;;3.51;100.00;99745.22;6155767;23;19960;-74
2024/03/24 06:49:58;;;;;;;;;;;;;;;3.92;100.00;99744.84;6154920;23;19920;-74
2024/03/24 06:52:23;;;;;;;;;;;;;;;4.48;100.00;99756.94;6153021;23;20039;-74
2024/03/24 06:54:49;;;;;;;;;;;;;;;4.39;100.00;99751.72;6155173;23;19964;-74
2024/03/24 06:57:15;;;;;;;;;;;;;;;4.08;100.00;99755.34;6155837;23;19913;-75
2024/03/24 06:59:40;;;;;;;;;;;;;;;4.00;100.00;99752.78;6154195;23;19917;-73
2024/03/24 07:02:05;;;;;;;;;;;;;;;3.69;100.00;99753.72;6155119;23;19912;-75
2024/03/24 07:04:31;;;;;;;;;;;;;;;3.59;100.00;99742.47;6158946;23;19936;-76
2024/03/24 07:06:56;;;;;;;;;;;;;;;3.56;100.00;99746.34;6166159;23;19913;-75
2024/03/24 07:09:21;;;;;;;;;;;;;;;3.49;100.00;99750.69;6160937;23;19924;-76
2024/03/24 07:11:46;;;;;;;;;;;;;;;3.44;100.00;99748.56;6156139;23;19913;-74
2024/03/24 07:14:12;;;;;;;;;;;;;;;3.37;100.00;99752.94;6155707;23;20391;-76
2024/03/24 07:16:37;;;;;;;;;;;;;;;3.44;100.00;99748.56;6154484;23;20226;-75
2024/03/24 07:19:03;;;;;;;;;;;;;;;3.47;100.00;99748.22;6126571;23;20027;-75
2024/03/24 07:21:28;;;;;;;;;;;;;;;3.70;100.00;99752.72;6151645;23;19913;-74
2024/03/24 07:23:53;;;;;;;;;;;;;;;3.81;100.00;99746.09;6154243;23;19987;-76
2024/03/24 07:26:18;;;;;;;;;;;;;;;4.67;100.00;99753.72;6155149;23;20330;-74
2024/03/24 07:28:44;;;;;;;;;;;;;;;5.46;100.00;99753.97;6151587;23;20299;-74
2024/03/24 07:31:09;;;;;;;;;;;;;;;6.15;100.00;99755.19;6151230;23;20334;-74
2024/03/24 07:33:34;;;;;;;;;;;;;;;6.01;100.00;99758.75;6151361;23;20306;-79
2024/03/24 07:36:00;;;;;;;;;;;;;;;6.19;100.00;99768.97;6150826;23;19923;-75
2024/03/24 07:38:25;;;;;;;;;;;;;;;5.91;100.00;99772.47;6153529;23;20272;-76
2024/03/24 07:40:50;;;;;;;;;;;;;;;5.18;100.00;99753.91;6153057;23;20314;-76
2024/03/24 07:43:15;;;;;;;;;;;;;;;4.88;100.00;99765.47;6150853;23;19912;-76
2024/03/24 07:45:40;;;;;;;;;;;;;;;4.57;100.00;99771.84;6151536;23;19913;-76
2024/03/24 07:48:06;;;;;;;;;;;;;;;4.50;100.00;99773.56;6153662;23;20098;-75
2024/03/24 07:50:32;;;;;;;;;;;;;;;4.59;100.00;99777.78;6153837;23;19972;-77
2024/03/24 07:52:57;;;;;;;;;;;;;;;4.38;100.00;99766.03;6153768;23;19991;-76
2024/03/24 07:55:22;;;;;;;;;;;;;;;4.37;100.00;99769.72;6153892;23;19913;-75
2024/03/24 07:57:47;;;;;;;;;;;;;;;4.66;100.00;99784.03;6154019;23;20393;-76
2024/03/24 08:00:13;;;;;;;;;;;;;;;5.28;100.00;99776.59;6153512;23;19919;-76
2024/03/24 08:02:38;;;;;;;;;;;;;;;5.42;100.00;99777.53;6153504;23;19913;-76
2024/03/24 08:05:04;;;;;;;;;;;;;;;5.43;100.00;99781.06;6152811;23;19998;-76
2024/03/24 08:07:29;;;;;;;;;;;;;;;5.68;100.00;99786.84;6152790;23;20316;-76
2024/03/24 08:09:54;;;;;;;;;;;;;;;5.90;100.00;99776.16;6153019;23;19912;-76
2024/03/24 08:12:20;;;;;;;;;;;;;;;6.92;100.00;99789.13;6153466;23;19939;-76
2024/03/24 08:14:45;;;;;;;;;;;;;;;8.26;94.88;99788.53;6126484;23;19916;-76
2024/03/24 08:17:11;;;;;;;;;;;;;;;8.08;93.39;99789.16;6152896;23;19912;-76
2024/03/24 08:19:36;;;;;;;;;;;;;;;8.29;92.49;99785.44;6153018;23;19923;-76
2024/03/24 08:22:01;;;;;;;;;;;;;;;8.68;87.68;99788.25;6151355;23;20004;-73
2024/03/24 08:24:26;;;;;;;;;;;;;;;8.33;91.23;99800.06;6153009;23;19917;-76
2024/03/24 08:26:52;;;;;;;;;;;;;;;8.23;95.19;99792.44;6153475;23;19920;-76
2024/03/24 08:29:17;;;;;;;;;;;;;;;9.05;87.26;99788.53;6151542;23;20406;-74
2024/03/24 08:31:42;;;;;;;;;;;;;;;8.80;88.84;99787.41;6153145;23;20207;-76
2024/03/24 08:34:07;;;;;;;;;;;;;;;9.08;90.05;99785.44;6152907;23;20393;-75
2024/03/24 08:36:33;;;;;;;;;;;;;;;9.01;83.47;99787.31;6150755;23;20280;-76
2024/03/24 08:38:59;;;;;;;;;;;;;;;9.25;86.57;99786.59;6151063;23;19936;-76
2024/03/24 08:41:24;;;;;;;;;;;;;;;9.43;82.20;99785.06;6153118;23;19916;-75
2024/03/24 08:43:49;;;;;;;;;;;;;;;8.52;85.55;99781.50;6151389;23;19924;-75
2024/03/24 08:46:15;;;;;;;;;;;;;;;8.78;85.44;99773.38;6153079;23;19912;-74
2024/03/24 08:48:49;;;;;;;;;;;;;;;8.22;85.49;99780.06;6153294;23;19917;-74
2024/03/24 08:51:14;;;;;;;;;;;;;;;7.82;91.82;99780.09;6150732;23;19917;-77
2024/03/24 08:53:40;;;;;;;;;;;;;;;8.61;87.70;99767.66;6152531;23;19999;-76
2024/03/24 08:56:05;;;;;;;;;;;;;;;8.59;86.30;99752.78;6152042;23;19948;-76
2024/03/24 08:58:31;;;;;;;;;;;;;;;8.08;88.33;99770.41;6151042;23;19968;-76
2024/03/24 09:00:58;;;;;;;;;;;;;;;7.48;92.02;99780.06;6151845;23;20286;-76
2024/03/24 09:03:24;;;;;;;;;;;;;;;7.94;90.04;99765.06;6152444;23;19920;-76
2024/03/24 09:05:49;;;;;;;;;;;;;;;8.31;89.76;99772.66;6151281;23;19916;-76
2024/03/24 09:08:14;;;;;;;;;;;;;;;8.16;89.08;99765.66;6152209;23;20043;-76
2024/03/24 09:10:40;;;;;;;;;;;;;;;7.87;91.19;99766.91;6153066;23;19917;-76
2024/03/24 09:13:05;;;;;;;;;;;;;;;7.86;93.32;99760.69;6151020;23;19920;-76
2024/03/24 09:15:31;;;;;;;;;;;;;;;7.25;94.50;99753.63;6152555;23;19912;-76
2024/03/24 09:17:56;;;;;;;;;;;;;;;6.76;98.93;99775.06;6154031;23;20278;-76
2024/03/24 09:20:21;;;;;;;;;;;;;;;6.80;100.00;99776.31;6152039;23;20344;-76
2024/03/24 09:22:48;;;;;;;;;;;;;;;6.31;98.22;99767.41;6152290;23;19913;-76
2024/03/24 09:25:13;;;;;;;;;;;;;;;6.41;99.13;99761.72;6153878;23;19916;-75
2024/03/24 09:27:41;;;;;;;;;;;;;;;6.11;99.67;99775.31;6156223;23;20262;-76
2024/03/24 09:30:07;;;;;;;;;;;;;;;6.24;100.00;99774.56;6154825;23;20329;-75
2024/03/24 09:32:32;;;;;;;;;;;;;;;6.26;100.00;99777.03;6156085;23;19919;-77
2024/03/24 09:34:57;;;;;;;;;;;;;;;6.15;100.00;99765.88;6154782;23;19915;-77
2024/03/24 09:37:23;;;;;;;;;;;;;;;5.99;100.00;99771.50;6154406;23;19920;-77
2024/03/24 09:39:49;;;;;;;;;;;;;;;5.73;100.00;99772.91;6154622;23;19951;-76
2024/03/24 09:42:14;;;;;;;;;;;;;;;5.66;100.00;99764.00;6154324;23;19917;-75
2024/03/24 09:44:39;;;;;;;;;;;;;;;5.67;100.00;99768.31;6154079;23;20063;-75
2024/03/24 09:47:05;;;;;;;;;;;;;;;5.71;100.00;99765.09;6128365;23;19975;-75
2024/03/24 09:49:31;;;;;;;;;;;;;;;5.77;100.00;99780.34;6154775;23;20014;-75
2024/03/24 09:51:59;;;;;;;;;;;;;;;5.77;100.00;99766.97;6127634;23;20322;-77
2024/03/24 09:54:25;;;;;;;;;;;;;;;5.91;100.00;99772.47;6154407;23;19913;-75
2024/03/24 09:56:50;;;;;;;;;;;;;;;5.82;100.00;99763.75;6154903;23;20277;-75
2024/03/24 09:59:15;;;;;;;;;;;;;;;5.77;100.00;99764.31;6153816;23;20019;-76
2024/03/24 10:01:41;;;;;;;;;;;;;;;5.69;100.00;99774.28;6128274;23;20337;-75
2024/03/24 10:04:07;;;;;;;;;;;;;;;5.81;100.00;99758.59;6154791;23;20298;-76
2024/03/24 10:06:32;;;;;;;;;;;;;;;5.60;100.00;99758.44;6153744;23;19913;-76
2024/03/24 10:08:57;;;;;;;;;;;;;;;5.55;100.00;99773.38;6127890;23;19940;-75
2024/03/24 10:11:26;;;;;;;;;;;;;;;5.25;100.00;99774.28;6154696;23;20240;-75
2024/03/24 10:13:55;;;;;;;;;;;;;;;5.09;100.00;99783.34;6153249;23;19919;-75
2024/03/24 10:16:21;;;;;;;;;;;;;;;5.04;100.00;99782.25;6153932;23;20218;-75
2024/03/24 10:18:46;;;;;;;;;;;;;;;4.98;100.00;99795.31;6154487;23;20333;-75
2024/03/24 10:21:11;;;;;;;;;;;;;;;4.90;100.00;99789.25;6154011;23;19979;-75
2024/03/24 10:23:37;;;;;;;;;;;;;;;4.88;100.00;99792.13;6152728;23;20364;-75
2024/03/24 10:26:02;;;;;;;;;;;;;;;4.86;100.00;99794.16;6154149;23;19972;-75
2024/03/24 10:28:28;;;;;;;;;;;;;;;4.72;100.00;99806.47;6153300;23;19916;-75
2024/03/24 10:30:53;;;;;;;;;;;;;;;4.63;100.00;99797.75;6153313;23;19913;-75
2024/03/24 10:33:18;;;;;;;;;;;;;;;4.63;100.00;99799.59;6128096;23;19912;-75
2024/03/24 10:35:47;;;;;;;;;;;;;;;4.67;100.00;99807.03;6152986;23;19928;-74
2024/03/24 10:38:12;;;;;;;;;;;;;;;4.80;100.00;99798.38;6154410;23;19966;-74
2024/03/24 10:40:38;;;;;;;;;;;;;;;4.86;100.00;99780.81;6155331;23;19999;-74
2024/03/24 10:43:04;;;;;;;;;;;;;;;4.91;100.00;99802.44;6152241;23;20349;-74
2024/03/24 10:45:29;;;;;;;;;;;;;;;4.98;100.00;99797.16;6127550;23;20133;-74
2024/03/24 10:48:07;;;;;;;;;;;;;;;5.08;100.00;99792.34;6128350;23;19913;-74
2024/03/24 10:50:32;;;;;;;;;;;;;;;5.29;100.00;99791.59;6151875;23;19948;-75
2024/03/24 10:53:00;;;;;;;;;;;;;;;5.71;100.00;99796.31;6153723;23;19948;-75
2024/03/24 10:55:26;;;;;;;;;;;;;;;5.45;100.00;99787.03;6127995;23;19987;-74
2024/03/24 10:57:52;;;;;;;;;;;;;;;5.57;100.00;99796.19;6125461;23;19952;-74
2024/03/24 11:00:17;;;;;;;;;;;;;;;5.47;100.00;99787.66;6127912;23;20325;-74
2024/03/24 11:02:42;;;;;;;;;;;;;;;5.66;100.00;99791.53;6154428;23;19919;-75
2024/03/24 11:05:08;;;;;;;;;;;;;;;5.90;100.00;99795.66;6126193;23;19920;-75
2024/03/24 11:07:33;;;;;;;;;;;;;;;5.80;100.00;99795.16;6127288;23;19979;-75
2024/03/24 11:09:58;;;;;;;;;;;;;;;5.95;100.00;99788.91;6128666;23;19913;-75
2024/03/24 11:12:24;;;;;;;;;;;;;;;6.10;100.00;99797.69;6152224;23;19913;-75
2024/03/24 11:14:50;;;;;;;;;;;;;;;5.85;100.00;99782.03;6127108;23;19909;-76
2024/03/24 11:17:15;;;;;;;;;;;;;;;6.30;100.00;99794.34;6128609;23;19920;-75
2024/03/24 11:19:47;;;;;;;;;;;;;;;6.30;100.00;99789.81;6152662;23;19913;-75
2024/03/24 11:22:14;;;;;;;;;;;;;;;6.71;100.00;99782.03;6153046;23;19919;-75
2024/03/24 11:24:42;;;;;;;;;;;;;;;8.04;100.00;99773.50;6153090;23;19963;-75
2024/03/24 11:27:10;;;;;;;;;;;;;;;8.38;96.68;99768.09;6127323;23;19912;-74
2024/03/24 11:29:45;;;;;;;;;;;;;;;7.89;100.00;99775.56;6152929;23;19912;-75
2024/03/24 11:32:13;;;;;;;;;;;;;;;7.36;99.87;99782.50;6154195;23;19916;-75
2024/03/24 11:35:08;;;;;;;;;;;;;;;7.01;100.00;99777.25;6154395;23;19959;-75
2024/03/24 11:37:34;;;;;;;;;;;;;;;6.74;100.00;99755.72;6130741;23;20273;-74
2024/03/24 11:39:59;;;;;;;;;;;;;;;6.81;100.00;99753.06;6158943;23;19917;-74
2024/03/24 11:42:28;;;;;;;;;;;;;;;6.86;100.00;99760.50;6157204;23;19916;-75
2024/03/24 11:44:53;;;;;;;;;;;;;;;6.83;100.00;99762.56;6154466;23;19915;-74
2024/03/24 11:47:18;;;;;;;;;;;;;;;6.67;100.00;99766.38;6153924;23;20300;-75
2024/03/24 11:49:49;;;;;;;;;;;;;;;6.72;100.00;99763.09;6154050;23;19913;-75
2024/03/24 11:52:16;;;;;;;;;;;;;;;6.81;100.00;99756.59;6153000;23;19940;-74
2024/03/24 11:54:41;;;;;;;;;;;;;;;6.61;100.00;99750.31;6151982;23;19929;-75
2024/03/24 11:57:06;;;;;;;;;;;;;;;6.72;100.00;99755.09;6126433;23;19967;-75
2024/03/24 11:59:32;;;;;;;;;;;;;;;6.69;100.00;99750.16;6151502;23;19913;-75
2024/03/24 12:01:57;;;;;;;;;;;;;;;6.58;100.00;99731.97;6155490;23;19943;-74
2024/03/24 12:04:24;;;;;;;;;;;;;;;6.76;100.00;99751.00;6160015;23;19967;-75
2024/03/24 12:06:49;;;;;;;;;;;;;;;6.89;100.00;99749.38;6154157;23;19913;-73
2024/03/24 12:09:15;;;;;;;;;;;;;;;6.55;100.00;99743.06;6154978;23;19923;-75
2024/03/24 12:11:40;;;;;;;;;;;;;;;6.29;100.00;99749.94;6154588;23;20277;-75
2024/03/24 12:14:07;;;;;;;;;;;;;;;6.43;100.00;99751.66;6153347;23;20072;-75
2024/03/24 12:16:32;;;;;;;;;;;;;;;6.39;100.00;99758.41;6155439;23;19913;-75
2024/03/24 12:18:57;;;;;;;;;;;;;;;6.27;100.00;99776.03;6153025;23;20211;-75
2024/03/24 12:21:23;;;;;;;;;;;;;;;6.19;100.00;99768.97;6151982;23;20362;-75
2024/03/24 12:23:48;;;;;;;;;;;;;;;6.06;100.00;99772.38;6152844;23;19927;-75
2024/03/24 12:26:20;;;;;;;;;;;;;;;5.91;100.00;99769.78;6153085;23;20284;-75
2024/03/24 12:28:54;;;;;;;;;;;;;;;6.58;100.00;99769.41;5039773;27;1919316;-75
2024/03/24 12:31:19;;;;;;;;;;;;;;;7.82;100.00;99775.56;5090776;28;20535;-75
2024/03/24 12:33:44;;;;;;;;;;;;;;;9.03;100.00;99763.78;5107926;28;20548;-76
2024/03/24 12:36:10;;;;;;;;;;;;;;;8.87;100.00;99770.47;5106868;28;19946;-75
2024/03/24 12:38:36;;;;;;;;;;;;;;;8.19;100.00;99753.69;5108714;28;19974;-75
2024/03/24 12:41:02;;;;;;;;;;;;;;;7.76;100.00;99754.13;5107734;28;20291;-74